Time;durP1;ratioP1;P1;durP2;ratioP2;P2;SDS_P1;SDS_P2;PMS_P1;PMS_P2;Temp;Humidity;BMP_temperature;BMP_pressure;BME280_temperature;BME280_humidity;BME280_pressure;Samples;Min_cycle;Max_cycle;Signal;HPM_P1;HPM_P2
2020/12/15 00:01:30;;;;;;;10.90;5.50;;;;;;;;;;4980714;28;20546;-84
2020/12/15 00:03:56;;;;;;;9.73;5.03;;;;;;;;;;5018405;28;20054;-84
2020/12/15 00:06:22;;;;;;;11.32;4.90;;;;;;;;;;5009723;28;20054;-85
2020/12/15 00:08:52;;;;;;;7.97;5.47;;;;;;;;;;5032856;28;20053;-86
2020/12/15 00:11:18;;;;;;;10.00;5.47;;;;;;;;;;5024292;28;20067;-84
2020/12/15 00:13:48;;;;;;;8.93;5.43;;;;;;;;;;5035348;28;20067;-84
2020/12/15 00:16:17;;;;;;;9.27;5.15;;;;;;;;;;5022940;28;20407;-85
2020/12/15 00:19:05;;;;;;;7.00;5.47;;;;;;;;;;5033731;28;20049;-85
2020/12/15 00:21:32;;;;;;;10.82;6.18;;;;;;;;;;5011716;28;20114;-86
2020/12/15 00:23:58;;;;;;;9.73;5.38;;;;;;;;;;5014814;28;20060;-87
2020/12/15 00:26:25;;;;;;;10.20;5.53;;;;;;;;;;5015232;28;20064;-87
2020/12/15 00:30:22;;;;;;;;;;;;;;;;;;;;;
2020/12/15 00:36:21;;;;;;;7.88;4.93;;;;;;;;;;4962237;28;20134;-86
2020/12/15 00:39:10;;;;;;;7.97;4.47;;;;;;;;;;4859463;29;20060;-86
2020/12/15 00:42:10;;;;;;;11.05;4.80;;;;;;;;;;4870818;29;20096;-86
2020/12/15 00:44:48;;;;;;;7.35;4.90;;;;;;;;;;4876181;29;20067;-84
2020/12/15 00:47:14;;;;;;;8.35;4.20;;;;;;;;;;4859454;29;20156;-85
2020/12/15 00:49:41;;;;;;;7.22;4.53;;;;;;;;;;4877980;29;20081;-84
2020/12/15 00:52:07;;;;;;;6.25;4.05;;;;;;;;;;4856757;29;20458;-83
2020/12/15 00:54:33;;;;;;;8.23;4.55;;;;;;;;;;4872226;29;20441;-83
2020/12/15 00:57:02;;;;;;;5.65;4.55;;;;;;;;;;4868293;29;20049;-83
2020/12/15 00:59:28;;;;;;;7.45;4.05;;;;;;;;;;4855194;29;20052;-83
2020/12/15 01:02:00;;;;;;;7.45;4.60;;;;;;;;;;4872366;29;20160;-82
2020/12/15 01:04:27;;;;;;;5.20;3.80;;;;;;;;;;4951975;29;20073;-82
2020/12/15 01:06:55;;;;;;;7.15;3.70;;;;;;;;;;4982735;28;20160;-82
2020/12/15 01:09:21;;;;;;;7.40;3.72;;;;;;;;;;5011915;28;20042;-83
2020/12/15 01:11:47;;;;;;;5.75;4.05;;;;;;;;;;5007861;28;20113;-82
2020/12/15 01:14:13;;;;;;;8.73;4.75;;;;;;;;;;5024690;28;20498;-82
2020/12/15 01:16:39;;;;;;;7.38;4.28;;;;;;;;;;5022230;28;20144;-82
2020/12/15 01:19:05;;;;;;;6.30;4.00;;;;;;;;;;5023059;28;20050;-83
2020/12/15 01:21:32;;;;;;;6.85;4.07;;;;;;;;;;5002968;28;20105;-85
2020/12/15 01:24:04;;;;;;;8.10;4.50;;;;;;;;;;5018222;28;20062;-87
2020/12/15 01:26:30;;;;;;;11.30;4.57;;;;;;;;;;5005126;28;20096;-87
2020/12/15 01:32:05;;;;;;;6.47;4.72;;;;;;;;;;5015329;28;20054;-88
2020/12/15 01:34:32;;;;;;;5.65;4.25;;;;;;;;;;5025330;28;20061;-86
2020/12/15 01:37:02;;;;;;;10.23;5.15;;;;;;;;;;5016521;28;20052;-84
2020/12/15 01:39:28;;;;;;;7.80;4.82;;;;;;;;;;5029966;28;20046;-84
2020/12/15 01:41:55;;;;;;;9.65;4.95;;;;;;;;;;5039288;28;20089;-84
2020/12/15 01:44:21;;;;;;;8.60;4.50;;;;;;;;;;5020150;28;20054;-84
2020/12/15 01:46:47;;;;;;;11.93;5.32;;;;;;;;;;5001648;28;20092;-83
2020/12/15 01:49:14;;;;;;;8.27;4.97;;;;;;;;;;5011634;28;20065;-85
2020/12/15 01:51:40;;;;;;;10.85;5.03;;;;;;;;;;5032891;28;20045;-85
2020/12/15 01:54:07;;;;;;;12.00;5.55;;;;;;;;;;5008514;28;20078;-85
2020/12/15 01:56:33;;;;;;;14.30;5.95;;;;;;;;;;5010025;28;20042;-85
2020/12/15 01:59:02;;;;;;;7.85;5.35;;;;;;;;;;5011688;28;20111;-86
2020/12/15 02:01:29;;;;;;;6.88;4.93;;;;;;;;;;5032261;28;20403;-86
2020/12/15 02:03:56;;;;;;;9.98;6.18;;;;;;;;;;5027669;28;20053;-86
2020/12/15 02:06:23;;;;;;;9.95;5.32;;;;;;;;;;5036891;28;20081;-84
2020/12/15 02:08:50;;;;;;;9.05;4.10;;;;;;;;;;5021475;28;20049;-84
2020/12/15 02:11:16;;;;;;;11.35;4.78;;;;;;;;;;5024706;28;20069;-84
2020/12/15 02:13:45;;;;;;;11.05;5.40;;;;;;;;;;5020838;28;20058;-84
2020/12/15 02:16:11;;;;;;;9.10;5.25;;;;;;;;;;5002560;28;20050;-84
2020/12/15 02:18:39;;;;;;;6.80;4.75;;;;;;;;;;5032668;28;20049;-87
2020/12/15 02:21:06;;;;;;;9.93;5.32;;;;;;;;;;5035254;28;20145;-85
2020/12/15 02:23:33;;;;;;;7.88;5.00;;;;;;;;;;5022093;28;20054;-86
2020/12/15 02:26:01;;;;;;;7.65;4.78;;;;;;;;;;5031485;28;20054;-85
2020/12/15 02:28:28;;;;;;;10.13;5.50;;;;;;;;;;5033950;28;20088;-85
2020/12/15 02:30:54;;;;;;;9.10;5.82;;;;;;;;;;5034520;28;20049;-85
2020/12/15 02:33:21;;;;;;;8.00;5.35;;;;;;;;;;5042292;28;20496;-85
2020/12/15 02:35:47;;;;;;;9.55;5.57;;;;;;;;;;5041501;28;20537;-85
2020/12/15 02:38:14;;;;;;;8.95;6.07;;;;;;;;;;5026069;28;20109;-86
2020/12/15 02:40:40;;;;;;;7.40;5.47;;;;;;;;;;5044248;28;20095;-83
2020/12/15 02:43:07;;;;;;;10.32;5.78;;;;;;;;;;5042710;28;20064;-83
2020/12/15 02:45:33;;;;;;;6.97;5.40;;;;;;;;;;5026718;28;20049;-84
2020/12/15 02:47:59;;;;;;;10.98;5.78;;;;;;;;;;5044059;28;20060;-84
2020/12/15 02:50:25;;;;;;;9.98;5.07;;;;;;;;;;5027560;28;20055;-84
2020/12/15 02:52:52;;;;;;;11.32;5.18;;;;;;;;;;5025155;28;20046;-85
2020/12/15 02:55:18;;;;;;;8.02;5.57;;;;;;;;;;5025201;28;20046;-84
2020/12/15 02:57:48;;;;;;;7.38;6.15;;;;;;;;;;5025733;28;20147;-84
2020/12/15 03:00:23;;;;;;;10.60;5.68;;;;;;;;;;5042662;28;20041;-84
2020/12/15 03:02:49;;;;;;;11.55;6.72;;;;;;;;;;5042980;28;20092;-85
2020/12/15 03:05:17;;;;;;;13.05;5.53;;;;;;;;;;5025705;28;20069;-85
2020/12/15 03:07:44;;;;;;;9.75;6.47;;;;;;;;;;5044098;28;20085;-85
2020/12/15 03:10:11;;;;;;;10.15;6.40;;;;;;;;;;5027101;28;20107;-84
2020/12/15 03:12:44;;;;;;;8.80;6.40;;;;;;;;;;5042651;28;20065;-83
2020/12/15 03:15:10;;;;;;;8.68;6.25;;;;;;;;;;5025502;28;20588;-83
2020/12/15 03:17:38;;;;;;;13.35;6.82;;;;;;;;;;5043808;28;20050;-84
2020/12/15 03:20:04;;;;;;;12.95;6.30;;;;;;;;;;5026962;28;20050;-85
2020/12/15 03:22:30;;;;;;;11.27;6.93;;;;;;;;;;5026250;28;20045;-84
2020/12/15 03:24:57;;;;;;;9.60;6.53;;;;;;;;;;5025168;28;20063;-84
2020/12/15 03:27:27;;;;;;;10.35;6.38;;;;;;;;;;5025996;28;20103;-84
2020/12/15 03:29:56;;;;;;;9.40;5.53;;;;;;;;;;5026238;28;20060;-85
2020/12/15 03:32:25;;;;;;;11.15;6.28;;;;;;;;;;5025413;28;20076;-85
2020/12/15 03:34:51;;;;;;;12.85;6.28;;;;;;;;;;5042555;28;20127;-84
2020/12/15 03:37:17;;;;;;;9.88;6.25;;;;;;;;;;5025007;28;20049;-85
2020/12/15 03:39:43;;;;;;;16.02;6.20;;;;;;;;;;5042871;28;20101;-85
2020/12/15 03:42:10;;;;;;;13.45;5.93;;;;;;;;;;5041684;28;20509;-85
2020/12/15 03:44:39;;;;;;;9.18;6.32;;;;;;;;;;5024835;28;20052;-84
2020/12/15 03:47:06;;;;;;;7.47;5.53;;;;;;;;;;5025933;28;20052;-84
2020/12/15 03:49:32;;;;;;;9.15;6.43;;;;;;;;;;5043551;28;20113;-85
2020/12/15 03:51:58;;;;;;;9.88;5.72;;;;;;;;;;5043282;28;20053;-84
2020/12/15 03:54:24;;;;;;;10.80;6.03;;;;;;;;;;5043870;28;20187;-85
2020/12/15 03:56:50;;;;;;;10.05;5.75;;;;;;;;;;5040769;28;20056;-85
2020/12/15 03:59:17;;;;;;;8.30;5.35;;;;;;;;;;5023748;28;20057;-86
2020/12/15 04:01:43;;;;;;;8.80;6.00;;;;;;;;;;5041665;28;20614;-85
2020/12/15 04:04:16;;;;;;;9.45;5.55;;;;;;;;;;5040605;28;20049;-85
2020/12/15 04:06:43;;;;;;;10.38;6.68;;;;;;;;;;5023816;28;20466;-85
2020/12/15 04:09:09;;;;;;;10.43;6.43;;;;;;;;;;5024061;28;20534;-85
2020/12/15 04:11:38;;;;;;;12.52;6.65;;;;;;;;;;5041367;28;20081;-85
2020/12/15 04:14:08;;;;;;;10.30;6.28;;;;;;;;;;5040934;28;20734;-85
2020/12/15 04:16:34;;;;;;;9.00;7.00;;;;;;;;;;5023658;28;20060;-85
2020/12/15 04:19:01;;;;;;;9.80;5.97;;;;;;;;;;5021852;28;20433;-84
2020/12/15 04:21:28;;;;;;;10.43;6.82;;;;;;;;;;5025763;28;20111;-84
2020/12/15 04:23:55;;;;;;;10.52;6.07;;;;;;;;;;5041630;28;20120;-84
2020/12/15 04:26:21;;;;;;;11.02;6.90;;;;;;;;;;5041331;28;20053;-84
2020/12/15 04:29:03;;;;;;;8.98;6.55;;;;;;;;;;5042780;28;20053;-85
2020/12/15 04:31:29;;;;;;;9.20;6.50;;;;;;;;;;5024770;28;20072;-85
2020/12/15 04:33:58;;;;;;;10.95;6.72;;;;;;;;;;5020664;28;20056;-85
2020/12/15 04:36:24;;;;;;;11.60;6.65;;;;;;;;;;5005270;28;20095;-85
2020/12/15 04:38:50;;;;;;;10.32;6.88;;;;;;;;;;5021833;28;20050;-85
2020/12/15 04:41:17;;;;;;;9.63;6.82;;;;;;;;;;5021000;28;20060;-84
2020/12/15 04:43:43;;;;;;;17.15;7.97;;;;;;;;;;5021216;28;20148;-85
2020/12/15 04:46:16;;;;;;;8.68;7.15;;;;;;;;;;5021890;28;20081;-85
2020/12/15 04:48:48;;;;;;;10.90;7.72;;;;;;;;;;5021905;28;20054;-84
2020/12/15 04:51:18;;;;;;;12.00;7.72;;;;;;;;;;5033858;28;20061;-84
2020/12/15 04:53:44;;;;;;;11.40;8.00;;;;;;;;;;5040014;28;20049;-83
2020/12/15 04:56:31;;;;;;;10.00;7.90;;;;;;;;;;5039362;28;20060;-83
2020/12/15 04:58:58;;;;;;;14.85;7.50;;;;;;;;;;5039003;28;20118;-84
2020/12/15 05:01:25;;;;;;;12.57;7.60;;;;;;;;;;5022234;28;20045;-84
2020/12/15 05:03:54;;;;;;;10.07;7.53;;;;;;;;;;5041462;28;20046;-83
2020/12/15 05:06:27;;;;;;;11.63;7.78;;;;;;;;;;5053447;28;20046;-83
2020/12/15 05:08:54;;;;;;;9.35;6.70;;;;;;;;;;5051715;28;20382;-83
2020/12/15 05:11:23;;;;;;;11.65;7.03;;;;;;;;;;5054986;28;20033;-83
2020/12/15 05:13:53;;;;;;;12.20;7.25;;;;;;;;;;5055751;28;20045;-83
2020/12/15 05:16:19;;;;;;;10.38;7.03;;;;;;;;;;5045266;28;20050;-83
2020/12/15 05:18:48;;;;;;;10.00;7.10;;;;;;;;;;5037010;28;20085;-83
2020/12/15 05:21:18;;;;;;;11.23;6.70;;;;;;;;;;5040230;28;20287;-83
2020/12/15 05:23:50;;;;;;;10.50;6.55;;;;;;;;;;5034743;28;20068;-84
2020/12/15 05:26:22;;;;;;;8.82;6.72;;;;;;;;;;5026281;28;20048;-83
2020/12/15 05:29:17;;;;;;;14.40;7.82;;;;;;;;;;5042428;28;20485;-83
2020/12/15 05:31:43;;;;;;;11.70;6.97;;;;;;;;;;5021504;28;20089;-83
2020/12/15 05:34:11;;;;;;;14.30;7.85;;;;;;;;;;5019901;28;20057;-83
2020/12/15 05:36:56;;;;;;;13.75;8.10;;;;;;;;;;5026956;28;20045;-82
2020/12/15 05:39:24;;;;;;;13.38;8.93;;;;;;;;;;5034673;28;20053;-83
2020/12/15 05:41:59;;;;;;;12.27;8.30;;;;;;;;;;5025247;28;20081;-84
2020/12/15 05:44:45;;;;;;;13.10;8.95;;;;;;;;;;5028072;28;20213;-83
2020/12/15 05:47:11;;;;;;;13.57;9.30;;;;;;;;;;5017775;28;20140;-84
2020/12/15 05:49:41;;;;;;;13.85;9.52;;;;;;;;;;5027371;28;20049;-84
2020/12/15 05:52:08;;;;;;;12.35;8.70;;;;;;;;;;5028897;28;20245;-85
2020/12/15 05:54:43;;;;;;;12.52;8.93;;;;;;;;;;5005586;28;20037;-85
2020/12/15 05:57:09;;;;;;;13.37;8.07;;;;;;;;;;5016763;28;20426;-84
2020/12/15 05:59:36;;;;;;;14.02;8.75;;;;;;;;;;5025507;28;20046;-85
2020/12/15 06:02:09;;;;;;;13.05;9.25;;;;;;;;;;5028848;28;20061;-83
2020/12/15 06:04:38;;;;;;;14.98;9.25;;;;;;;;;;5017047;28;20198;-83
2020/12/15 06:07:05;;;;;;;13.70;8.65;;;;;;;;;;5009488;28;20503;-83
2020/12/15 06:09:32;;;;;;;9.82;7.30;;;;;;;;;;5029032;28;20560;-84
2020/12/15 06:11:59;;;;;;;14.13;9.15;;;;;;;;;;5014898;28;20328;-83
2020/12/15 06:14:26;;;;;;;11.95;7.95;;;;;;;;;;5011085;28;20055;-83
2020/12/15 06:16:53;;;;;;;13.27;8.57;;;;;;;;;;5004872;28;20588;-84
2020/12/15 06:19:26;;;;;;;10.30;8.13;;;;;;;;;;5007089;28;20599;-85
2020/12/15 06:21:56;;;;;;;11.73;8.68;;;;;;;;;;5018581;28;20076;-85
2020/12/15 06:24:24;;;;;;;15.43;9.20;;;;;;;;;;5020901;28;20085;-84
2020/12/15 06:26:58;;;;;;;11.38;8.27;;;;;;;;;;5020249;28;20064;-82
2020/12/15 06:29:28;;;;;;;13.82;9.20;;;;;;;;;;5023762;28;20113;-83
2020/12/15 06:31:56;;;;;;;14.15;9.25;;;;;;;;;;5016933;28;20421;-84
2020/12/15 06:34:26;;;;;;;12.60;9.52;;;;;;;;;;5028953;28;20046;-84
2020/12/15 06:36:55;;;;;;;16.83;9.43;;;;;;;;;;5031405;28;20058;-82
2020/12/15 06:39:26;;;;;;;13.93;9.25;;;;;;;;;;5011466;28;20042;-82
2020/12/15 06:41:56;;;;;;;15.52;9.70;;;;;;;;;;5022173;28;20104;-85
2020/12/15 06:44:35;;;;;;;12.57;9.60;;;;;;;;;;5010592;28;20060;-83
2020/12/15 06:47:03;;;;;;;12.45;9.05;;;;;;;;;;5012951;28;20054;-82
2020/12/15 06:49:30;;;;;;;16.23;9.40;;;;;;;;;;5006823;28;20073;-84
2020/12/15 06:51:58;;;;;;;14.25;8.90;;;;;;;;;;5019928;28;20069;-83
2020/12/15 06:54:32;;;;;;;17.10;9.57;;;;;;;;;;5020829;28;20045;-84
2020/12/15 06:57:07;;;;;;;15.18;9.43;;;;;;;;;;5020271;28;20052;-84
2020/12/15 06:59:36;;;;;;;17.67;10.23;;;;;;;;;;5018388;28;20050;-84
2020/12/15 07:02:06;;;;;;;13.38;9.93;;;;;;;;;;5019614;28;20061;-84
2020/12/15 07:04:39;;;;;;;14.90;9.57;;;;;;;;;;5019596;28;20056;-83
2020/12/15 07:07:07;;;;;;;15.60;9.25;;;;;;;;;;5031527;28;20116;-84
2020/12/15 07:09:35;;;;;;;17.48;9.07;;;;;;;;;;5009926;28;20050;-83
2020/12/15 15:14:02;;;;;;;34.70;19.25;;;;;;;;;;5237671;23;20119;-85
2020/12/15 15:16:29;;;;;;;32.88;21.42;;;;;;;;;;4941288;29;20083;-85
2020/12/15 15:19:09;;;;;;;28.02;20.00;;;;;;;;;;4937588;29;20092;-85
2020/12/15 15:21:38;;;;;;;28.00;19.48;;;;;;;;;;4928213;29;20040;-85
2020/12/15 15:24:05;;;;;;;32.20;18.70;;;;;;;;;;4927308;29;20059;-85
2020/12/15 15:26:31;;;;;;;32.92;20.25;;;;;;;;;;4944299;29;20111;-85
2020/12/15 15:29:00;;;;;;;34.70;22.10;;;;;;;;;;4928022;29;20043;-85
2020/12/15 15:31:26;;;;;;;31.63;20.58;;;;;;;;;;4938602;29;20175;-85
2020/12/15 15:33:59;;;;;;;104.50;87.90;;;;;;;;;;4931879;29;20048;-85
2020/12/15 15:36:33;;;;;;;34.42;22.45;;;;;;;;;;4949342;29;20058;-86
2020/12/15 15:39:00;;;;;;;37.90;24.40;;;;;;;;;;4931588;29;20188;-84
2020/12/15 15:41:26;;;;;;;39.13;27.52;;;;;;;;;;4948013;28;20059;-85
2020/12/15 15:43:53;;;;;;;34.42;22.25;;;;;;;;;;4943018;28;20055;-86
2020/12/15 15:46:29;;;;;;;31.55;22.42;;;;;;;;;;4941319;28;20059;-85
2020/12/15 15:49:15;;;;;;;37.60;22.70;;;;;;;;;;4934152;29;20427;-86
2020/12/15 15:52:19;;;;;;;39.80;23.42;;;;;;;;;;4921714;29;20048;-86
2020/12/15 15:55:03;;;;;;;34.13;21.58;;;;;;;;;;4958606;28;20058;-85
2020/12/15 15:57:29;;;;;;;35.03;22.30;;;;;;;;;;4936848;29;20047;-85
2020/12/15 15:59:56;;;;;;;35.50;23.73;;;;;;;;;;4931947;29;20257;-85
2020/12/15 16:02:23;;;;;;;36.17;24.25;;;;;;;;;;4928001;29;20054;-85
2020/12/15 16:08:32;;;;;;;37.08;23.77;;;;;;;;;;4928260;29;20086;-84
2020/12/15 16:11:24;;;;;;;43.40;30.92;;;;;;;;;;4944394;29;20115;-84
2020/12/15 16:14:03;;;;;;;45.63;33.75;;;;;;;;;;4943002;29;20063;-85
2020/12/15 16:16:36;;;;;;;37.05;24.15;;;;;;;;;;4926956;29;20047;-85
2020/12/15 16:19:15;;;;;;;38.03;23.20;;;;;;;;;;4946028;29;20087;-86
2020/12/15 16:21:56;;;;;;;42.33;28.58;;;;;;;;;;4941105;29;20156;-86
2020/12/15 16:24:22;;;;;;;42.55;22.73;;;;;;;;;;4954296;29;20216;-86
2020/12/15 16:26:56;;;;;;;45.55;32.75;;;;;;;;;;4927472;29;20110;-85
2020/12/15 16:29:39;;;;;;;37.72;26.00;;;;;;;;;;4924702;29;20051;-85
2020/12/15 16:32:05;;;;;;;42.55;31.20;;;;;;;;;;4931568;29;20047;-85
2020/12/15 16:34:37;;;;;;;37.42;22.88;;;;;;;;;;4932388;29;20146;-84
2020/12/15 16:37:06;;;;;;;31.50;21.30;;;;;;;;;;4945160;29;20287;-85
2020/12/15 16:39:33;;;;;;;46.42;33.17;;;;;;;;;;4922537;29;20055;-84
2020/12/15 16:42:00;;;;;;;42.03;26.15;;;;;;;;;;4931866;29;20082;-86
2020/12/15 16:44:34;;;;;;;35.75;24.42;;;;;;;;;;4931149;29;20121;-85
2020/12/15 16:47:00;;;;;;;35.63;23.77;;;;;;;;;;4926417;29;20391;-85
2020/12/15 16:49:27;;;;;;;35.72;24.13;;;;;;;;;;4936251;29;20212;-84
2020/12/15 16:51:55;;;;;;;31.05;21.50;;;;;;;;;;4932833;29;20277;-85
2020/12/15 16:54:31;;;;;;;36.67;24.08;;;;;;;;;;4950664;29;20048;-84
2020/12/15 16:56:57;;;;;;;37.13;26.02;;;;;;;;;;4936072;29;20075;-84
2020/12/15 16:59:44;;;;;;;30.73;21.70;;;;;;;;;;4948384;29;20044;-85
2020/12/15 17:02:13;;;;;;;35.75;23.92;;;;;;;;;;4957794;29;20074;-84
2020/12/15 17:04:40;;;;;;;36.58;22.60;;;;;;;;;;4940289;29;20055;-83
2020/12/15 17:07:08;;;;;;;36.70;25.85;;;;;;;;;;4955062;29;20078;-85
2020/12/15 17:09:35;;;;;;;32.63;22.77;;;;;;;;;;4955141;29;20059;-84
2020/12/15 17:12:01;;;;;;;47.42;24.55;;;;;;;;;;4941747;29;20057;-84
2020/12/15 17:14:29;;;;;;;35.17;23.33;;;;;;;;;;4964905;28;20039;-84
2020/12/15 17:16:55;;;;;;;32.17;22.42;;;;;;;;;;4944850;29;20377;-84
2020/12/15 17:19:21;;;;;;;37.65;23.08;;;;;;;;;;4948221;29;20434;-85
2020/12/15 17:21:48;;;;;;;36.38;23.48;;;;;;;;;;4926894;29;20047;-84
2020/12/15 17:24:14;;;;;;;40.00;26.30;;;;;;;;;;4942945;29;20051;-84
2020/12/15 17:26:44;;;;;;;41.22;27.48;;;;;;;;;;4929398;29;20414;-83
2020/12/15 17:29:10;;;;;;;41.70;23.92;;;;;;;;;;4932237;29;20053;-83
2020/12/15 17:31:37;;;;;;;40.40;25.33;;;;;;;;;;4941114;29;20043;-83
2020/12/15 17:34:03;;;;;;;42.42;27.17;;;;;;;;;;4933521;29;20321;-84
2020/12/15 17:36:29;;;;;;;41.55;26.60;;;;;;;;;;4946706;29;20423;-84
2020/12/15 17:38:59;;;;;;;41.80;25.05;;;;;;;;;;4947498;29;20176;-84
2020/12/15 17:41:26;;;;;;;42.17;27.27;;;;;;;;;;4912997;29;20388;-84
2020/12/15 17:43:55;;;;;;;39.30;25.40;;;;;;;;;;4931725;29;20075;-84
2020/12/15 17:46:21;;;;;;;40.00;24.52;;;;;;;;;;4929905;29;20167;-84
2020/12/15 17:48:48;;;;;;;37.20;23.50;;;;;;;;;;4932869;29;20047;-83
2020/12/15 17:51:14;;;;;;;39.90;24.70;;;;;;;;;;4933247;29;20179;-84
2020/12/15 17:53:40;;;;;;;64.05;37.20;;;;;;;;;;4914745;29;20052;-84
2020/12/15 17:56:09;;;;;;;39.15;25.88;;;;;;;;;;4915211;29;20047;-84
2020/12/15 17:58:36;;;;;;;41.47;25.75;;;;;;;;;;4916445;29;20182;-84
2020/12/15 18:01:02;;;;;;;39.75;24.80;;;;;;;;;;4923989;29;20051;-84
2020/12/15 18:03:29;;;;;;;43.38;28.95;;;;;;;;;;4944675;29;20228;-85
2020/12/15 18:05:56;;;;;;;43.17;25.23;;;;;;;;;;4963325;29;20055;-86
2020/12/15 18:08:24;;;;;;;42.88;25.67;;;;;;;;;;4963330;29;20266;-86
2020/12/15 18:10:50;;;;;;;41.05;26.67;;;;;;;;;;4945683;29;20054;-86
2020/12/15 18:13:17;;;;;;;39.28;26.02;;;;;;;;;;4963350;29;20063;-86
2020/12/15 18:15:47;;;;;;;41.53;25.75;;;;;;;;;;4962041;29;20031;-85
2020/12/15 18:18:19;;;;;;;46.42;28.17;;;;;;;;;;4964196;28;20109;-86
2020/12/15 18:21:01;;;;;;;45.00;27.95;;;;;;;;;;4965096;28;20051;-87
2020/12/15 18:23:27;;;;;;;50.20;30.67;;;;;;;;;;4947914;28;20043;-85
2020/12/15 18:25:53;;;;;;;49.60;30.52;;;;;;;;;;4945117;29;20256;-86
2020/12/15 18:28:20;;;;;;;49.50;29.63;;;;;;;;;;4942224;29;20040;-85
2020/12/15 18:30:47;;;;;;;52.05;31.20;;;;;;;;;;4937367;29;20043;-86
2020/12/15 18:33:13;;;;;;;50.33;30.02;;;;;;;;;;4960434;28;20089;-86
2020/12/15 18:35:40;;;;;;;50.20;32.17;;;;;;;;;;4948238;29;20077;-85
2020/12/15 18:38:10;;;;;;;55.40;32.60;;;;;;;;;;4946314;29;20047;-85
2020/12/15 18:40:36;;;;;;;61.30;35.08;;;;;;;;;;4955346;29;20052;-85
2020/12/15 18:43:07;;;;;;;53.28;29.77;;;;;;;;;;4936907;29;20078;-86
2020/12/15 18:45:55;;;;;;;54.28;33.13;;;;;;;;;;4937621;29;20052;-85
2020/12/15 18:48:26;;;;;;;53.72;30.50;;;;;;;;;;4929790;29;20048;-85
2020/12/15 18:50:53;;;;;;;53.78;29.92;;;;;;;;;;4933426;29;20048;-84
2020/12/15 18:53:23;;;;;;;53.30;30.27;;;;;;;;;;4932677;29;20052;-85
2020/12/15 18:55:54;;;;;;;54.83;30.98;;;;;;;;;;4948465;29;20082;-84
2020/12/15 18:58:21;;;;;;;56.53;31.65;;;;;;;;;;4933434;29;20184;-84
2020/12/15 19:00:49;;;;;;;67.13;33.63;;;;;;;;;;4923236;29;20049;-85
2020/12/15 19:03:16;;;;;;;64.57;32.08;;;;;;;;;;4929256;29;20111;-85
2020/12/15 19:05:47;;;;;;;58.90;32.38;;;;;;;;;;4942813;28;20139;-84
2020/12/15 19:08:19;;;;;;;58.15;31.63;;;;;;;;;;4955851;28;20035;-84
2020/12/15 19:10:45;;;;;;;60.45;32.15;;;;;;;;;;4953485;28;20038;-84
2020/12/15 19:13:11;;;;;;;59.28;33.33;;;;;;;;;;4954400;29;20111;-85
2020/12/15 19:15:43;;;;;;;58.13;32.67;;;;;;;;;;4934124;29;20044;-84
2020/12/15 19:18:09;;;;;;;55.00;33.13;;;;;;;;;;4936752;29;20050;-84
2020/12/15 19:20:43;;;;;;;58.00;30.92;;;;;;;;;;4940794;29;20050;-85
2020/12/15 19:23:14;;;;;;;54.08;31.52;;;;;;;;;;4935340;29;20351;-85
2020/12/15 19:25:43;;;;;;;60.28;32.97;;;;;;;;;;4949395;29;20055;-84
2020/12/15 19:28:15;;;;;;;65.57;32.42;;;;;;;;;;4946454;29;20367;-86
2020/12/15 19:30:44;;;;;;;56.30;32.22;;;;;;;;;;4933070;29;20110;-86
2020/12/15 19:33:10;;;;;;;57.88;33.20;;;;;;;;;;4948620;29;20047;-85
2020/12/15 19:35:40;;;;;;;56.00;33.67;;;;;;;;;;4957533;29;20225;-85
2020/12/15 19:38:06;;;;;;;57.95;32.90;;;;;;;;;;4931524;29;20051;-86
2020/12/15 19:40:33;;;;;;;56.78;31.33;;;;;;;;;;4952316;29;20048;-84
2020/12/15 19:42:59;;;;;;;64.75;34.92;;;;;;;;;;4933204;29;20056;-85
2020/12/15 19:45:31;;;;;;;60.25;31.77;;;;;;;;;;4938031;29;20059;-85
2020/12/15 19:47:57;;;;;;;64.68;32.67;;;;;;;;;;4935729;29;20056;-85
2020/12/15 19:50:29;;;;;;;58.67;30.60;;;;;;;;;;4940363;29;20135;-86
2020/12/15 19:52:58;;;;;;;61.08;31.52;;;;;;;;;;4946352;29;20138;-85
2020/12/15 19:55:28;;;;;;;57.50;31.17;;;;;;;;;;4944317;29;20147;-86
2020/12/15 19:57:56;;;;;;;59.33;32.53;;;;;;;;;;4943558;29;20051;-86
2020/12/15 20:00:33;;;;;;;59.17;31.02;;;;;;;;;;4945197;29;20043;-86
2020/12/15 20:03:00;;;;;;;63.08;33.20;;;;;;;;;;4946169;29;20089;-86
2020/12/15 20:05:26;;;;;;;62.47;33.28;;;;;;;;;;4947063;29;20110;-85
2020/12/15 20:08:06;;;;;;;58.03;31.75;;;;;;;;;;4963312;29;20053;-86
2020/12/15 20:10:50;;;;;;;59.35;32.30;;;;;;;;;;4952067;29;20194;-86
2020/12/15 20:13:32;;;;;;;58.58;31.42;;;;;;;;;;4965842;29;20253;-86
2020/12/15 20:16:06;;;;;;;64.53;32.20;;;;;;;;;;4948909;29;20047;-85
2020/12/15 20:19:12;;;;;;;61.15;31.35;;;;;;;;;;4945119;29;20629;-86
2020/12/15 20:21:50;;;;;;;58.80;31.38;;;;;;;;;;4959976;29;20124;-87
2020/12/15 20:24:36;;;;;;;61.50;32.00;;;;;;;;;;4945317;28;20244;-86
2020/12/15 20:27:15;;;;;;;65.85;32.17;;;;;;;;;;4971915;28;20472;-86
2020/12/15 20:29:43;;;;;;;67.28;31.50;;;;;;;;;;4957872;29;20058;-86
2020/12/15 20:32:09;;;;;;;65.07;32.20;;;;;;;;;;4939879;29;20055;-86
2020/12/15 20:34:39;;;;;;;66.85;33.60;;;;;;;;;;4941566;29;20050;-85
2020/12/15 20:37:10;;;;;;;66.88;32.78;;;;;;;;;;4956912;29;20103;-85
2020/12/15 20:39:37;;;;;;;67.15;32.88;;;;;;;;;;4946254;29;20039;-84
2020/12/15 20:42:05;;;;;;;64.65;31.33;;;;;;;;;;4959558;29;20134;-86
2020/12/15 20:44:37;;;;;;;71.32;32.85;;;;;;;;;;4945403;29;20047;-85
2020/12/15 20:47:05;;;;;;;68.05;32.28;;;;;;;;;;4948873;28;20043;-86
2020/12/15 20:49:33;;;;;;;72.85;32.63;;;;;;;;;;4939133;29;20055;-86
2020/12/15 20:52:04;;;;;;;76.65;34.38;;;;;;;;;;4964328;29;20043;-86
2020/12/15 20:54:45;;;;;;;65.57;30.63;;;;;;;;;;4958097;29;20046;-86
2020/12/15 20:57:33;;;;;;;63.20;30.38;;;;;;;;;;4963535;29;20027;-86
2020/12/15 21:00:02;;;;;;;65.38;30.73;;;;;;;;;;4957462;28;20079;-86
2020/12/15 21:02:44;;;;;;;67.45;32.25;;;;;;;;;;4942954;29;20039;-85
2020/12/15 21:05:30;;;;;;;66.65;31.40;;;;;;;;;;4957376;28;20245;-86
2020/12/15 21:08:10;;;;;;;69.30;32.93;;;;;;;;;;4954554;28;20106;-86
2020/12/15 21:10:53;;;;;;;63.55;30.90;;;;;;;;;;4956118;28;20079;-86
2020/12/15 21:13:29;;;;;;;64.35;30.65;;;;;;;;;;4961378;29;20051;-85
2020/12/15 21:16:14;;;;;;;70.45;31.73;;;;;;;;;;4939398;29;20058;-85
2020/12/15 21:18:58;;;;;;;70.72;32.40;;;;;;;;;;4918813;29;20441;-86
2020/12/15 21:21:41;;;;;;;62.22;30.73;;;;;;;;;;4918905;29;20055;-87
2020/12/15 21:24:24;;;;;;;69.05;32.20;;;;;;;;;;4917117;29;20078;-87
2020/12/15 21:40:57;;;;;;;78.35;32.83;;;;;;;;;;4822748;29;20108;-85
2020/12/15 21:43:40;;;;;;;70.45;32.08;;;;;;;;;;4854602;29;20121;-85
2020/12/15 21:46:06;;;;;;;69.13;30.85;;;;;;;;;;4904651;29;20048;-85
2020/12/15 21:48:38;;;;;;;70.72;32.45;;;;;;;;;;4915688;29;20043;-85
2020/12/15 21:51:04;;;;;;;69.80;31.63;;;;;;;;;;4929546;29;20076;-85
2020/12/15 21:53:31;;;;;;;74.15;31.73;;;;;;;;;;4911115;29;20056;-84
2020/12/15 21:55:57;;;;;;;81.43;34.47;;;;;;;;;;4914779;29;20305;-85
2020/12/15 21:58:23;;;;;;;73.65;31.83;;;;;;;;;;4913322;29;20325;-86
2020/12/15 22:01:07;;;;;;;80.10;34.38;;;;;;;;;;4929513;29;20169;-85
2020/12/15 22:03:34;;;;;;;77.75;34.63;;;;;;;;;;4926142;29;20292;-84
2020/12/15 22:06:01;;;;;;;81.05;34.30;;;;;;;;;;4917244;29;20091;-85
2020/12/15 22:08:27;;;;;;;76.75;34.30;;;;;;;;;;4928054;29;20198;-85
2020/12/15 22:11:00;;;;;;;75.55;34.53;;;;;;;;;;4917035;29;20420;-85
2020/12/15 22:13:26;;;;;;;75.72;32.92;;;;;;;;;;4915542;29;20056;-85
2020/12/15 22:15:52;;;;;;;80.40;36.92;;;;;;;;;;4933769;29;20083;-86
2020/12/15 22:18:18;;;;;;;76.93;35.25;;;;;;;;;;4954399;29;20039;-85
2020/12/15 22:20:44;;;;;;;80.93;33.75;;;;;;;;;;4954936;29;20047;-85
2020/12/15 22:23:10;;;;;;;72.93;33.75;;;;;;;;;;4952941;28;20323;-84
2020/12/15 22:25:37;;;;;;;82.57;35.63;;;;;;;;;;4945498;29;20043;-86
2020/12/15 22:28:04;;;;;;;80.72;35.50;;;;;;;;;;4952122;29;20086;-85
2020/12/15 22:30:33;;;;;;;82.20;33.97;;;;;;;;;;4936670;29;20066;-85
2020/12/15 22:33:00;;;;;;;81.10;34.75;;;;;;;;;;4938733;28;20031;-85
2020/12/15 22:35:26;;;;;;;73.05;34.38;;;;;;;;;;4952098;28;20106;-85
2020/12/15 22:37:52;;;;;;;77.22;34.78;;;;;;;;;;4959147;28;20054;-84
2020/12/15 22:40:19;;;;;;;75.18;34.70;;;;;;;;;;4933212;29;20056;-85
2020/12/15 22:42:45;;;;;;;82.00;34.10;;;;;;;;;;4953929;29;20575;-85
2020/12/15 22:45:11;;;;;;;75.45;34.58;;;;;;;;;;4934664;29;20052;-84
2020/12/15 22:48:00;;;;;;;79.68;33.58;;;;;;;;;;4963452;28;20046;-84
2020/12/15 22:50:26;;;;;;;78.68;34.13;;;;;;;;;;4956167;29;20478;-84
2020/12/15 22:52:53;;;;;;;81.82;36.95;;;;;;;;;;4959611;29;20115;-84
2020/12/15 22:55:19;;;;;;;84.43;35.60;;;;;;;;;;4958759;29;20062;-84
2020/12/15 22:57:49;;;;;;;79.43;35.25;;;;;;;;;;4954540;29;20043;-84
2020/12/15 23:00:15;;;;;;;85.78;36.72;;;;;;;;;;4943689;29;20047;-83
2020/12/15 23:02:42;;;;;;;84.07;34.63;;;;;;;;;;4961123;29;20617;-84
2020/12/15 23:05:08;;;;;;;75.35;33.20;;;;;;;;;;4938894;29;20051;-84
2020/12/15 23:07:34;;;;;;;77.82;33.63;;;;;;;;;;4937841;29;20082;-83
2020/12/15 23:10:00;;;;;;;69.57;32.83;;;;;;;;;;4959975;29;20036;-83